sensor_id;sensor_type;location;lat;lon;timestamp;P1;durP1;ratioP1;P2;durP2;ratioP2
76344;SDS011;65160;50.504;3.666;2023-02-15T00:01:15;59.92;;;30.77;;
76344;SDS011;65160;50.504;3.666;2023-02-15T00:03:40;57.67;;;32.50;;
76344;SDS011;65160;50.504;3.666;2023-02-15T00:06:06;55.28;;;32.97;;
76344;SDS011;65160;50.504;3.666;2023-02-15T00:08:31;55.85;;;31.65;;
76344;SDS011;65160;50.504;3.666;2023-02-15T00:11:06;55.97;;;31.45;;
76344;SDS011;65160;50.504;3.666;2023-02-15T00:13:33;55.97;;;31.13;;
76344;SDS011;65160;50.504;3.666;2023-02-15T00:16:03;56.72;;;30.13;;
76344;SDS011;65160;50.504;3.666;2023-02-15T00:18:33;65.30;;;32.85;;
76344;SDS011;65160;50.504;3.666;2023-02-15T00:21:02;52.30;;;29.85;;
76344;SDS011;65160;50.504;3.666;2023-02-15T00:23:29;51.83;;;29.33;;
76344;SDS011;65160;50.504;3.666;2023-02-15T00:26:08;54.38;;;29.75;;
76344;SDS011;65160;50.504;3.666;2023-02-15T00:28:35;56.20;;;30.23;;
76344;SDS011;65160;50.504;3.666;2023-02-15T00:31:04;53.35;;;30.52;;
76344;SDS011;65160;50.504;3.666;2023-02-15T00:33:34;49.33;;;28.13;;
76344;SDS011;65160;50.504;3.666;2023-02-15T00:36:00;53.80;;;30.67;;
76344;SDS011;65160;50.504;3.666;2023-02-15T00:38:27;52.70;;;29.70;;
76344;SDS011;65160;50.504;3.666;2023-02-15T00:40:53;54.53;;;30.23;;
76344;SDS011;65160;50.504;3.666;2023-02-15T00:43:20;53.45;;;28.63;;
76344;SDS011;65160;50.504;3.666;2023-02-15T00:45:45;47.60;;;28.10;;
76344;SDS011;65160;50.504;3.666;2023-02-15T00:48:11;51.67;;;27.70;;
76344;SDS011;65160;50.504;3.666;2023-02-15T00:50:37;50.00;;;27.23;;
76344;SDS011;65160;50.504;3.666;2023-02-15T00:53:02;54.08;;;28.73;;
76344;SDS011;65160;50.504;3.666;2023-02-15T00:55:28;50.10;;;27.52;;
76344;SDS011;65160;50.504;3.666;2023-02-15T00:57:53;49.05;;;27.83;;
76344;SDS011;65160;50.504;3.666;2023-02-15T01:00:19;54.50;;;30.00;;
76344;SDS011;65160;50.504;3.666;2023-02-15T01:02:44;52.83;;;29.98;;
76344;SDS011;65160;50.504;3.666;2023-02-15T01:05:10;49.05;;;27.95;;
76344;SDS011;65160;50.504;3.666;2023-02-15T01:07:35;50.55;;;29.55;;
76344;SDS011;65160;50.504;3.666;2023-02-15T01:10:01;51.63;;;28.60;;
76344;SDS011;65160;50.504;3.666;2023-02-15T01:12:26;60.00;;;29.70;;
76344;SDS011;65160;50.504;3.666;2023-02-15T01:14:52;57.38;;;30.60;;
76344;SDS011;65160;50.504;3.666;2023-02-15T01:17:17;57.03;;;32.20;;
76344;SDS011;65160;50.504;3.666;2023-02-15T01:19:43;63.80;;;34.22;;
76344;SDS011;65160;50.504;3.666;2023-02-15T01:22:08;57.00;;;31.65;;
76344;SDS011;65160;50.504;3.666;2023-02-15T01:24:34;55.58;;;30.80;;
76344;SDS011;65160;50.504;3.666;2023-02-15T01:26:59;61.50;;;31.50;;
76344;SDS011;65160;50.504;3.666;2023-02-15T01:29:25;55.38;;;31.10;;
76344;SDS011;65160;50.504;3.666;2023-02-15T01:31:50;55.28;;;31.38;;
76344;SDS011;65160;50.504;3.666;2023-02-15T01:34:16;49.38;;;28.77;;
76344;SDS011;65160;50.504;3.666;2023-02-15T01:36:41;59.47;;;32.35;;
76344;SDS011;65160;50.504;3.666;2023-02-15T01:39:07;55.28;;;30.02;;
76344;SDS011;65160;50.504;3.666;2023-02-15T01:41:33;55.38;;;29.98;;
76344;SDS011;65160;50.504;3.666;2023-02-15T01:43:59;53.58;;;29.08;;
76344;SDS011;65160;50.504;3.666;2023-02-15T01:46:36;54.42;;;29.70;;
76344;SDS011;65160;50.504;3.666;2023-02-15T01:49:15;55.83;;;31.38;;
76344;SDS011;65160;50.504;3.666;2023-02-15T01:51:44;56.15;;;29.35;;
76344;SDS011;65160;50.504;3.666;2023-02-15T01:54:15;53.95;;;28.63;;
76344;SDS011;65160;50.504;3.666;2023-02-15T01:56:46;47.67;;;27.05;;
76344;SDS011;65160;50.504;3.666;2023-02-15T01:59:15;52.38;;;29.77;;
76344;SDS011;65160;50.504;3.666;2023-02-15T02:01:44;52.40;;;28.20;;
76344;SDS011;65160;50.504;3.666;2023-02-15T02:04:24;52.88;;;29.88;;
76344;SDS011;65160;50.504;3.666;2023-02-15T02:06:56;60.80;;;29.17;;
76344;SDS011;65160;50.504;3.666;2023-02-15T02:09:23;53.00;;;29.38;;
76344;SDS011;65160;50.504;3.666;2023-02-15T02:11:49;52.85;;;30.80;;
76344;SDS011;65160;50.504;3.666;2023-02-15T02:14:15;67.80;;;30.08;;
76344;SDS011;65160;50.504;3.666;2023-02-15T02:19:17;51.58;;;28.60;;
76344;SDS011;65160;50.504;3.666;2023-02-15T02:35:38;53.78;;;29.63;;
76344;SDS011;65160;50.504;3.666;2023-02-15T02:38:27;56.28;;;30.50;;
76344;SDS011;65160;50.504;3.666;2023-02-15T02:50:00;53.80;;;28.60;;
76344;SDS011;65160;50.504;3.666;2023-02-15T02:52:35;52.55;;;28.90;;
76344;SDS011;65160;50.504;3.666;2023-02-15T02:55:05;53.85;;;29.20;;
76344;SDS011;65160;50.504;3.666;2023-02-15T02:57:35;54.22;;;29.27;;
76344;SDS011;65160;50.504;3.666;2023-02-15T03:00:05;56.15;;;29.80;;
76344;SDS011;65160;50.504;3.666;2023-02-15T03:02:35;55.92;;;29.42;;
76344;SDS011;65160;50.504;3.666;2023-02-15T03:05:06;55.28;;;30.77;;
76344;SDS011;65160;50.504;3.666;2023-02-15T03:07:36;53.83;;;29.35;;
76344;SDS011;65160;50.504;3.666;2023-02-15T03:10:05;59.80;;;30.83;;
76344;SDS011;65160;50.504;3.666;2023-02-15T03:12:33;60.95;;;31.35;;
76344;SDS011;65160;50.504;3.666;2023-02-15T03:15:05;54.97;;;31.35;;
76344;SDS011;65160;50.504;3.666;2023-02-15T03:17:45;53.75;;;29.80;;
76344;SDS011;65160;50.504;3.666;2023-02-15T03:20:14;58.88;;;29.98;;
76344;SDS011;65160;50.504;3.666;2023-02-15T03:22:54;55.83;;;30.50;;
76344;SDS011;65160;50.504;3.666;2023-02-15T03:25:34;55.80;;;29.65;;
76344;SDS011;65160;50.504;3.666;2023-02-15T03:28:11;53.88;;;30.70;;
76344;SDS011;65160;50.504;3.666;2023-02-15T03:30:41;63.00;;;31.95;;
76344;SDS011;65160;50.504;3.666;2023-02-15T03:33:09;55.83;;;29.52;;
76344;SDS011;65160;50.504;3.666;2023-02-15T03:36:01;52.05;;;29.30;;
76344;SDS011;65160;50.504;3.666;2023-02-15T03:38:38;53.20;;;29.45;;
76344;SDS011;65160;50.504;3.666;2023-02-15T03:41:09;58.10;;;31.52;;
76344;SDS011;65160;50.504;3.666;2023-02-15T03:48:54;58.10;;;32.00;;
76344;SDS011;65160;50.504;3.666;2023-02-15T03:51:42;62.53;;;31.15;;
76344;SDS011;65160;50.504;3.666;2023-02-15T03:54:15;60.95;;;30.88;;
76344;SDS011;65160;50.504;3.666;2023-02-15T03:57:09;65.93;;;30.92;;
76344;SDS011;65160;50.504;3.666;2023-02-15T03:59:55;55.55;;;31.23;;
76344;SDS011;65160;50.504;3.666;2023-02-15T04:02:45;54.70;;;28.85;;
76344;SDS011;65160;50.504;3.666;2023-02-15T04:05:14;57.58;;;32.55;;
76344;SDS011;65160;50.504;3.666;2023-02-15T04:07:39;61.20;;;30.85;;
76344;SDS011;65160;50.504;3.666;2023-02-15T04:10:05;62.78;;;32.13;;
76344;SDS011;65160;50.504;3.666;2023-02-15T04:12:49;61.47;;;31.67;;
76344;SDS011;65160;50.504;3.666;2023-02-15T04:15:14;54.47;;;30.55;;
76344;SDS011;65160;50.504;3.666;2023-02-15T04:17:58;55.58;;;30.00;;
76344;SDS011;65160;50.504;3.666;2023-02-15T04:20:26;59.63;;;31.95;;
76344;SDS011;65160;50.504;3.666;2023-02-15T04:23:10;65.25;;;33.38;;
76344;SDS011;65160;50.504;3.666;2023-02-15T04:25:54;64.75;;;31.05;;
76344;SDS011;65160;50.504;3.666;2023-02-15T04:28:20;55.17;;;31.88;;
76344;SDS011;65160;50.504;3.666;2023-02-15T04:30:46;56.95;;;30.92;;
76344;SDS011;65160;50.504;3.666;2023-02-15T04:33:12;66.75;;;32.65;;
76344;SDS011;65160;50.504;3.666;2023-02-15T04:35:37;60.53;;;31.70;;
76344;SDS011;65160;50.504;3.666;2023-02-15T04:38:03;57.55;;;31.42;;
76344;SDS011;65160;50.504;3.666;2023-02-15T04:40:28;60.10;;;32.05;;
76344;SDS011;65160;50.504;3.666;2023-02-15T04:42:54;58.03;;;31.13;;
76344;SDS011;65160;50.504;3.666;2023-02-15T04:45:19;65.20;;;33.40;;
76344;SDS011;65160;50.504;3.666;2023-02-15T04:47:45;59.35;;;31.65;;
76344;SDS011;65160;50.504;3.666;2023-02-15T04:50:10;52.20;;;30.25;;
76344;SDS011;65160;50.504;3.666;2023-02-15T04:52:36;61.72;;;32.63;;
76344;SDS011;65160;50.504;3.666;2023-02-15T04:55:02;61.15;;;30.92;;
76344;SDS011;65160;50.504;3.666;2023-02-15T04:57:27;55.13;;;29.25;;
76344;SDS011;65160;50.504;3.666;2023-02-15T04:59:53;64.47;;;29.90;;
76344;SDS011;65160;50.504;3.666;2023-02-15T05:02:18;56.03;;;29.38;;
76344;SDS011;65160;50.504;3.666;2023-02-15T05:04:44;59.03;;;30.90;;
76344;SDS011;65160;50.504;3.666;2023-02-15T05:07:09;58.15;;;31.58;;
76344;SDS011;65160;50.504;3.666;2023-02-15T05:09:35;55.00;;;30.30;;
76344;SDS011;65160;50.504;3.666;2023-02-15T05:12:00;57.28;;;30.52;;
76344;SDS011;65160;50.504;3.666;2023-02-15T05:14:26;63.92;;;34.20;;
76344;SDS011;65160;50.504;3.666;2023-02-15T05:16:51;58.40;;;31.20;;
76344;SDS011;65160;50.504;3.666;2023-02-15T05:19:18;56.28;;;31.25;;
76344;SDS011;65160;50.504;3.666;2023-02-15T05:21:44;63.72;;;31.38;;
76344;SDS011;65160;50.504;3.666;2023-02-15T05:24:09;61.30;;;30.50;;
76344;SDS011;65160;50.504;3.666;2023-02-15T05:26:53;55.78;;;30.48;;
76344;SDS011;65160;50.504;3.666;2023-02-15T05:29:37;50.80;;;28.55;;
76344;SDS011;65160;50.504;3.666;2023-02-15T05:32:03;56.03;;;31.05;;
76344;SDS011;65160;50.504;3.666;2023-02-15T05:34:29;57.95;;;29.80;;
76344;SDS011;65160;50.504;3.666;2023-02-15T05:36:54;57.33;;;30.15;;
76344;SDS011;65160;50.504;3.666;2023-02-15T05:39:20;57.47;;;31.67;;
76344;SDS011;65160;50.504;3.666;2023-02-15T05:41:45;60.28;;;30.95;;
76344;SDS011;65160;50.504;3.666;2023-02-15T05:44:11;62.15;;;32.92;;
76344;SDS011;65160;50.504;3.666;2023-02-15T05:46:36;61.15;;;31.55;;
76344;SDS011;65160;50.504;3.666;2023-02-15T05:49:02;59.38;;;30.70;;
76344;SDS011;65160;50.504;3.666;2023-02-15T05:51:27;56.25;;;30.83;;
76344;SDS011;65160;50.504;3.666;2023-02-15T05:53:53;57.70;;;31.10;;
76344;SDS011;65160;50.504;3.666;2023-02-15T05:56:18;52.40;;;31.60;;
76344;SDS011;65160;50.504;3.666;2023-02-15T05:58:44;66.75;;;32.35;;
76344;SDS011;65160;50.504;3.666;2023-02-15T06:01:13;62.15;;;31.15;;
76344;SDS011;65160;50.504;3.666;2023-02-15T06:03:40;57.55;;;30.77;;
76344;SDS011;65160;50.504;3.666;2023-02-15T06:06:07;59.25;;;31.17;;
76344;SDS011;65160;50.504;3.666;2023-02-15T06:08:33;60.78;;;29.67;;
76344;SDS011;65160;50.504;3.666;2023-02-15T06:11:00;55.53;;;31.25;;
76344;SDS011;65160;50.504;3.666;2023-02-15T06:13:26;54.85;;;30.63;;
76344;SDS011;65160;50.504;3.666;2023-02-15T06:15:51;50.60;;;29.05;;
76344;SDS011;65160;50.504;3.666;2023-02-15T06:18:17;57.45;;;30.48;;
76344;SDS011;65160;50.504;3.666;2023-02-15T06:20:44;61.80;;;31.08;;
76344;SDS011;65160;50.504;3.666;2023-02-15T06:23:10;61.45;;;31.95;;
76344;SDS011;65160;50.504;3.666;2023-02-15T06:25:36;59.00;;;31.67;;
76344;SDS011;65160;50.504;3.666;2023-02-15T06:28:01;56.38;;;31.98;;
76344;SDS011;65160;50.504;3.666;2023-02-15T06:30:27;58.47;;;33.40;;
76344;SDS011;65160;50.504;3.666;2023-02-15T06:32:52;60.65;;;32.60;;
76344;SDS011;65160;50.504;3.666;2023-02-15T06:35:18;56.60;;;31.45;;
76344;SDS011;65160;50.504;3.666;2023-02-15T06:37:45;67.00;;;32.47;;
76344;SDS011;65160;50.504;3.666;2023-02-15T06:40:11;56.35;;;32.15;;
76344;SDS011;65160;50.504;3.666;2023-02-15T06:42:37;65.03;;;33.10;;
76344;SDS011;65160;50.504;3.666;2023-02-15T06:45:03;57.88;;;32.05;;
76344;SDS011;65160;50.504;3.666;2023-02-15T06:47:29;66.35;;;31.80;;
76344;SDS011;65160;50.504;3.666;2023-02-15T06:49:54;52.63;;;29.88;;
76344;SDS011;65160;50.504;3.666;2023-02-15T06:52:20;59.70;;;32.80;;
76344;SDS011;65160;50.504;3.666;2023-02-15T06:54:45;68.90;;;31.50;;
76344;SDS011;65160;50.504;3.666;2023-02-15T06:57:11;57.95;;;30.67;;
76344;SDS011;65160;50.504;3.666;2023-02-15T06:59:36;67.40;;;33.63;;
76344;SDS011;65160;50.504;3.666;2023-02-15T07:02:02;60.20;;;31.95;;
76344;SDS011;65160;50.504;3.666;2023-02-15T07:04:27;67.68;;;34.97;;
76344;SDS011;65160;50.504;3.666;2023-02-15T07:06:54;63.75;;;31.83;;
76344;SDS011;65160;50.504;3.666;2023-02-15T07:09:20;57.83;;;31.38;;
76344;SDS011;65160;50.504;3.666;2023-02-15T07:11:45;61.63;;;30.10;;
76344;SDS011;65160;50.504;3.666;2023-02-15T07:14:29;70.03;;;31.02;;
76344;SDS011;65160;50.504;3.666;2023-02-15T07:16:55;62.20;;;31.85;;
76344;SDS011;65160;50.504;3.666;2023-02-15T07:19:20;54.20;;;29.63;;
76344;SDS011;65160;50.504;3.666;2023-02-15T07:21:46;53.88;;;29.95;;
76344;SDS011;65160;50.504;3.666;2023-02-15T07:24:12;58.75;;;31.55;;
76344;SDS011;65160;50.504;3.666;2023-02-15T07:26:37;64.57;;;32.70;;
76344;SDS011;65160;50.504;3.666;2023-02-15T07:29:03;59.78;;;33.50;;
76344;SDS011;65160;50.504;3.666;2023-02-15T07:31:28;63.88;;;33.20;;
76344;SDS011;65160;50.504;3.666;2023-02-15T07:33:54;55.33;;;32.22;;
76344;SDS011;65160;50.504;3.666;2023-02-15T07:36:19;56.20;;;32.40;;
76344;SDS011;65160;50.504;3.666;2023-02-15T07:38:45;58.20;;;30.50;;
76344;SDS011;65160;50.504;3.666;2023-02-15T07:41:11;53.05;;;30.05;;
76344;SDS011;65160;50.504;3.666;2023-02-15T07:43:39;53.70;;;31.67;;
76344;SDS011;65160;50.504;3.666;2023-02-15T07:46:07;56.50;;;30.65;;
76344;SDS011;65160;50.504;3.666;2023-02-15T07:48:36;57.42;;;30.90;;
76344;SDS011;65160;50.504;3.666;2023-02-15T07:51:03;58.63;;;31.15;;
76344;SDS011;65160;50.504;3.666;2023-02-15T07:53:31;65.40;;;34.05;;
76344;SDS011;65160;50.504;3.666;2023-02-15T07:56:00;61.42;;;33.03;;
76344;SDS011;65160;50.504;3.666;2023-02-15T07:58:27;70.57;;;36.90;;
76344;SDS011;65160;50.504;3.666;2023-02-15T08:01:13;59.95;;;33.20;;
76344;SDS011;65160;50.504;3.666;2023-02-15T08:03:39;70.85;;;36.25;;
76344;SDS011;65160;50.504;3.666;2023-02-15T08:06:05;74.70;;;40.35;;
76344;SDS011;65160;50.504;3.666;2023-02-15T08:08:32;77.90;;;38.83;;
76344;SDS011;65160;50.504;3.666;2023-02-15T08:13:46;69.97;;;36.90;;
76344;SDS011;65160;50.504;3.666;2023-02-15T08:16:21;63.25;;;34.20;;
76344;SDS011;65160;50.504;3.666;2023-02-15T08:18:48;68.50;;;36.45;;
76344;SDS011;65160;50.504;3.666;2023-02-15T08:21:14;57.67;;;32.60;;
76344;SDS011;65160;50.504;3.666;2023-02-15T08:23:39;60.17;;;33.58;;
76344;SDS011;65160;50.504;3.666;2023-02-15T08:26:05;60.08;;;33.60;;
76344;SDS011;65160;50.504;3.666;2023-02-15T08:28:30;53.85;;;28.55;;
76344;SDS011;65160;50.504;3.666;2023-02-15T08:31:03;49.92;;;26.70;;
76344;SDS011;65160;50.504;3.666;2023-02-15T08:33:32;56.50;;;28.13;;
76344;SDS011;65160;50.504;3.666;2023-02-15T08:36:02;47.10;;;26.35;;
76344;SDS011;65160;50.504;3.666;2023-02-15T08:38:31;50.35;;;27.55;;
76344;SDS011;65160;50.504;3.666;2023-02-15T08:40:58;43.35;;;24.23;;
76344;SDS011;65160;50.504;3.666;2023-02-15T08:43:23;45.15;;;25.52;;
76344;SDS011;65160;50.504;3.666;2023-02-15T08:45:49;41.03;;;23.65;;
76344;SDS011;65160;50.504;3.666;2023-02-15T08:48:14;40.92;;;22.23;;
76344;SDS011;65160;50.504;3.666;2023-02-15T08:50:40;44.20;;;22.98;;
76344;SDS011;65160;50.504;3.666;2023-02-15T08:53:05;36.90;;;20.95;;
76344;SDS011;65160;50.504;3.666;2023-02-15T08:55:31;43.90;;;24.15;;
76344;SDS011;65160;50.504;3.666;2023-02-15T08:57:56;39.97;;;23.45;;
76344;SDS011;65160;50.504;3.666;2023-02-15T09:00:22;38.72;;;22.48;;
76344;SDS011;65160;50.504;3.666;2023-02-15T09:02:48;36.35;;;20.92;;
76344;SDS011;65160;50.504;3.666;2023-02-15T09:05:13;39.55;;;22.05;;
76344;SDS011;65160;50.504;3.666;2023-02-15T09:07:39;40.15;;;23.25;;
76344;SDS011;65160;50.504;3.666;2023-02-15T09:10:05;37.50;;;21.77;;
76344;SDS011;65160;50.504;3.666;2023-02-15T09:12:31;35.78;;;21.50;;
76344;SDS011;65160;50.504;3.666;2023-02-15T09:14:57;37.28;;;21.52;;
76344;SDS011;65160;50.504;3.666;2023-02-15T09:17:22;42.33;;;22.90;;
76344;SDS011;65160;50.504;3.666;2023-02-15T09:19:49;39.20;;;23.63;;
76344;SDS011;65160;50.504;3.666;2023-02-15T09:22:14;38.67;;;21.80;;
76344;SDS011;65160;50.504;3.666;2023-02-15T09:24:40;36.95;;;22.40;;
76344;SDS011;65160;50.504;3.666;2023-02-15T09:27:05;37.95;;;22.23;;
76344;SDS011;65160;50.504;3.666;2023-02-15T09:29:30;37.00;;;22.02;;
76344;SDS011;65160;50.504;3.666;2023-02-15T09:31:56;40.08;;;23.25;;
76344;SDS011;65160;50.504;3.666;2023-02-15T09:34:22;36.67;;;22.65;;
76344;SDS011;65160;50.504;3.666;2023-02-15T09:36:48;37.65;;;21.50;;
76344;SDS011;65160;50.504;3.666;2023-02-15T09:39:16;40.65;;;22.23;;
76344;SDS011;65160;50.504;3.666;2023-02-15T09:52:17;38.90;;;21.15;;
76344;SDS011;65160;50.504;3.666;2023-02-15T09:57:39;32.17;;;21.15;;
76344;SDS011;65160;50.504;3.666;2023-02-15T10:00:46;36.25;;;21.80;;
76344;SDS011;65160;50.504;3.666;2023-02-15T10:03:43;34.58;;;20.83;;
76344;SDS011;65160;50.504;3.666;2023-02-15T10:28:08;37.50;;;22.63;;
76344;SDS011;65160;50.504;3.666;2023-02-15T10:30:48;41.28;;;24.02;;
76344;SDS011;65160;50.504;3.666;2023-02-15T10:47:36;37.28;;;22.33;;
76344;SDS011;65160;50.504;3.666;2023-02-15T11:01:16;40.03;;;22.65;;
76344;SDS011;65160;50.504;3.666;2023-02-15T11:06:38;32.75;;;20.88;;
76344;SDS011;65160;50.504;3.666;2023-02-15T11:09:11;39.95;;;20.40;;
76344;SDS011;65160;50.504;3.666;2023-02-15T11:11:41;32.87;;;19.03;;
76344;SDS011;65160;50.504;3.666;2023-02-15T11:14:34;35.85;;;21.38;;
76344;SDS011;65160;50.504;3.666;2023-02-15T11:17:12;40.05;;;21.58;;
76344;SDS011;65160;50.504;3.666;2023-02-15T11:19:45;36.50;;;20.60;;
76344;SDS011;65160;50.504;3.666;2023-02-15T11:22:36;35.97;;;21.33;;
76344;SDS011;65160;50.504;3.666;2023-02-15T11:25:05;36.47;;;21.85;;
76344;SDS011;65160;50.504;3.666;2023-02-15T11:27:42;34.17;;;20.88;;
76344;SDS011;65160;50.504;3.666;2023-02-15T11:32:40;33.53;;;20.17;;
76344;SDS011;65160;50.504;3.666;2023-02-15T11:43:06;35.05;;;21.10;;
76344;SDS011;65160;50.504;3.666;2023-02-15T11:45:38;33.00;;;20.48;;
76344;SDS011;65160;50.504;3.666;2023-02-15T11:48:14;41.33;;;22.52;;
76344;SDS011;65160;50.504;3.666;2023-02-15T11:50:41;33.00;;;20.45;;
76344;SDS011;65160;50.504;3.666;2023-02-15T11:53:15;34.83;;;21.58;;
76344;SDS011;65160;50.504;3.666;2023-02-15T11:55:52;36.80;;;21.42;;
76344;SDS011;65160;50.504;3.666;2023-02-15T12:01:02;40.78;;;22.25;;
76344;SDS011;65160;50.504;3.666;2023-02-15T12:03:46;35.53;;;21.40;;
76344;SDS011;65160;50.504;3.666;2023-02-15T12:06:24;36.47;;;21.52;;
76344;SDS011;65160;50.504;3.666;2023-02-15T12:08:57;33.00;;;20.67;;
76344;SDS011;65160;50.504;3.666;2023-02-15T12:11:33;33.00;;;21.70;;
76344;SDS011;65160;50.504;3.666;2023-02-15T12:14:07;35.05;;;21.55;;
76344;SDS011;65160;50.504;3.666;2023-02-15T12:16:41;37.92;;;21.25;;
76344;SDS011;65160;50.504;3.666;2023-02-15T12:19:36;34.97;;;21.30;;
76344;SDS011;65160;50.504;3.666;2023-02-15T12:22:05;34.03;;;20.98;;
76344;SDS011;65160;50.504;3.666;2023-02-15T12:24:45;36.20;;;23.27;;
76344;SDS011;65160;50.504;3.666;2023-02-15T12:27:46;35.42;;;22.65;;
76344;SDS011;65160;50.504;3.666;2023-02-15T12:30:19;38.33;;;22.60;;
76344;SDS011;65160;50.504;3.666;2023-02-15T12:32:51;39.77;;;23.20;;
76344;SDS011;65160;50.504;3.666;2023-02-15T12:35:29;37.35;;;21.65;;
76344;SDS011;65160;50.504;3.666;2023-02-15T12:38:00;36.25;;;22.05;;
76344;SDS011;65160;50.504;3.666;2023-02-15T12:40:45;34.30;;;22.02;;
76344;SDS011;65160;50.504;3.666;2023-02-15T12:43:27;32.95;;;22.02;;
76344;SDS011;65160;50.504;3.666;2023-02-15T12:46:21;38.67;;;23.45;;
76344;SDS011;65160;50.504;3.666;2023-02-15T12:49:06;32.72;;;21.50;;
76344;SDS011;65160;50.504;3.666;2023-02-15T12:51:42;38.10;;;22.83;;
76344;SDS011;65160;50.504;3.666;2023-02-15T12:54:16;36.22;;;23.23;;
76344;SDS011;65160;50.504;3.666;2023-02-15T12:56:42;38.58;;;22.05;;
76344;SDS011;65160;50.504;3.666;2023-02-15T12:59:12;34.22;;;22.70;;
76344;SDS011;65160;50.504;3.666;2023-02-15T13:01:39;38.95;;;22.52;;
76344;SDS011;65160;50.504;3.666;2023-02-15T13:04:28;34.55;;;22.48;;
76344;SDS011;65160;50.504;3.666;2023-02-15T13:07:01;33.58;;;22.13;;
76344;SDS011;65160;50.504;3.666;2023-02-15T13:11:56;37.13;;;22.77;;
76344;SDS011;65160;50.504;3.666;2023-02-15T13:14:34;35.47;;;22.42;;
76344;SDS011;65160;50.504;3.666;2023-02-15T13:17:02;35.70;;;23.10;;
76344;SDS011;65160;50.504;3.666;2023-02-15T13:19:36;34.78;;;22.27;;
76344;SDS011;65160;50.504;3.666;2023-02-15T13:22:06;36.88;;;22.30;;
76344;SDS011;65160;50.504;3.666;2023-02-15T13:24:43;41.90;;;24.48;;
76344;SDS011;65160;50.504;3.666;2023-02-15T13:27:16;35.33;;;21.70;;
76344;SDS011;65160;50.504;3.666;2023-02-15T13:29:45;37.72;;;25.00;;
76344;SDS011;65160;50.504;3.666;2023-02-15T13:34:53;45.58;;;25.17;;
76344;SDS011;65160;50.504;3.666;2023-02-15T13:40:22;41.22;;;23.65;;
76344;SDS011;65160;50.504;3.666;2023-02-15T13:42:57;38.90;;;22.98;;
76344;SDS011;65160;50.504;3.666;2023-02-15T13:45:33;34.67;;;22.17;;
76344;SDS011;65160;50.504;3.666;2023-02-15T14:04:25;38.42;;;22.70;;
76344;SDS011;65160;50.504;3.666;2023-02-15T14:07:31;38.05;;;23.30;;
76344;SDS011;65160;50.504;3.666;2023-02-15T14:12:57;38.13;;;23.63;;
76344;SDS011;65160;50.504;3.666;2023-02-15T14:15:29;38.10;;;23.85;;
76344;SDS011;65160;50.504;3.666;2023-02-15T14:18:17;34.83;;;23.52;;
76344;SDS011;65160;50.504;3.666;2023-02-15T14:31:46;38.47;;;24.23;;
76344;SDS011;65160;50.504;3.666;2023-02-15T14:34:23;36.85;;;23.48;;
76344;SDS011;65160;50.504;3.666;2023-02-15T14:36:52;36.33;;;23.10;;
76344;SDS011;65160;50.504;3.666;2023-02-15T14:47:44;36.53;;;23.45;;
76344;SDS011;65160;50.504;3.666;2023-02-15T14:56:24;32.75;;;22.15;;
76344;SDS011;65160;50.504;3.666;2023-02-15T15:01:24;46.03;;;27.05;;
76344;SDS011;65160;50.504;3.666;2023-02-15T15:04:13;36.92;;;24.25;;
76344;SDS011;65160;50.504;3.666;2023-02-15T15:06:59;45.67;;;27.37;;
76344;SDS011;65160;50.504;3.666;2023-02-15T15:09:28;42.97;;;25.63;;
76344;SDS011;65160;50.504;3.666;2023-02-15T15:14:46;38.95;;;24.88;;
76344;SDS011;65160;50.504;3.666;2023-02-15T15:22:32;37.28;;;25.10;;
76344;SDS011;65160;50.504;3.666;2023-02-15T15:27:56;44.42;;;25.02;;
76344;SDS011;65160;50.504;3.666;2023-02-15T15:32:58;39.22;;;24.10;;
76344;SDS011;65160;50.504;3.666;2023-02-15T15:41:32;41.83;;;25.27;;
76344;SDS011;65160;50.504;3.666;2023-02-15T15:49:23;37.55;;;24.75;;
76344;SDS011;65160;50.504;3.666;2023-02-15T15:51:52;42.22;;;25.55;;
76344;SDS011;65160;50.504;3.666;2023-02-15T15:54:18;44.72;;;26.58;;
76344;SDS011;65160;50.504;3.666;2023-02-15T15:57:12;41.67;;;25.98;;
76344;SDS011;65160;50.504;3.666;2023-02-15T15:59:43;38.85;;;24.40;;
76344;SDS011;65160;50.504;3.666;2023-02-15T16:02:11;42.10;;;25.02;;
76344;SDS011;65160;50.504;3.666;2023-02-15T16:04:41;43.28;;;26.35;;
76344;SDS011;65160;50.504;3.666;2023-02-15T16:09:41;42.40;;;26.35;;
76344;SDS011;65160;50.504;3.666;2023-02-15T16:12:30;48.15;;;30.20;;
76344;SDS011;65160;50.504;3.666;2023-02-15T16:14:58;43.70;;;28.00;;
76344;SDS011;65160;50.504;3.666;2023-02-15T16:17:29;43.22;;;26.40;;
76344;SDS011;65160;50.504;3.666;2023-02-15T16:20:05;47.35;;;29.15;;
76344;SDS011;65160;50.504;3.666;2023-02-15T16:22:43;42.53;;;26.83;;
76344;SDS011;65160;50.504;3.666;2023-02-15T16:27:46;50.75;;;28.23;;
76344;SDS011;65160;50.504;3.666;2023-02-15T16:30:19;45.40;;;28.77;;
76344;SDS011;65160;50.504;3.666;2023-02-15T16:32:45;42.20;;;28.10;;
76344;SDS011;65160;50.504;3.666;2023-02-15T16:35:18;47.85;;;27.50;;
76344;SDS011;65160;50.504;3.666;2023-02-15T16:37:45;43.47;;;26.27;;
76344;SDS011;65160;50.504;3.666;2023-02-15T16:42:49;42.75;;;27.08;;
76344;SDS011;65160;50.504;3.666;2023-02-15T16:45:16;43.00;;;26.67;;
76344;SDS011;65160;50.504;3.666;2023-02-15T16:47:45;44.67;;;26.15;;
76344;SDS011;65160;50.504;3.666;2023-02-15T16:50:17;46.20;;;27.88;;
76344;SDS011;65160;50.504;3.666;2023-02-15T16:52:48;45.25;;;27.38;;
76344;SDS011;65160;50.504;3.666;2023-02-15T16:55:24;48.70;;;27.38;;
76344;SDS011;65160;50.504;3.666;2023-02-15T16:57:57;45.92;;;26.85;;
76344;SDS011;65160;50.504;3.666;2023-02-15T17:00:26;45.20;;;28.33;;
76344;SDS011;65160;50.504;3.666;2023-02-15T17:05:32;44.72;;;27.27;;
76344;SDS011;65160;50.504;3.666;2023-02-15T17:08:10;42.53;;;28.38;;
76344;SDS011;65160;50.504;3.666;2023-02-15T17:13:24;49.42;;;28.30;;
76344;SDS011;65160;50.504;3.666;2023-02-15T17:18:26;41.53;;;27.27;;
76344;SDS011;65160;50.504;3.666;2023-02-15T17:20:54;47.30;;;29.05;;
76344;SDS011;65160;50.504;3.666;2023-02-15T17:25:55;46.15;;;27.95;;
76344;SDS011;65160;50.504;3.666;2023-02-15T17:28:23;48.45;;;29.45;;
76344;SDS011;65160;50.504;3.666;2023-02-15T17:30:53;47.08;;;29.33;;
76344;SDS011;65160;50.504;3.666;2023-02-15T17:33:24;52.08;;;30.77;;
76344;SDS011;65160;50.504;3.666;2023-02-15T17:38:31;43.60;;;27.58;;
76344;SDS011;65160;50.504;3.666;2023-02-15T17:40:57;49.97;;;28.52;;
76344;SDS011;65160;50.504;3.666;2023-02-15T17:43:23;45.75;;;27.92;;
76344;SDS011;65160;50.504;3.666;2023-02-15T17:45:50;45.63;;;28.08;;
76344;SDS011;65160;50.504;3.666;2023-02-15T17:48:19;42.22;;;27.92;;
76344;SDS011;65160;50.504;3.666;2023-02-15T17:51:02;47.30;;;27.48;;
76344;SDS011;65160;50.504;3.666;2023-02-15T17:53:29;48.22;;;30.05;;
76344;SDS011;65160;50.504;3.666;2023-02-15T17:55:56;42.58;;;26.90;;
76344;SDS011;65160;50.504;3.666;2023-02-15T17:58:21;46.70;;;26.58;;
76344;SDS011;65160;50.504;3.666;2023-02-15T18:00:48;44.50;;;26.88;;
76344;SDS011;65160;50.504;3.666;2023-02-15T18:03:39;41.42;;;26.80;;
76344;SDS011;65160;50.504;3.666;2023-02-15T18:06:23;44.88;;;26.55;;
76344;SDS011;65160;50.504;3.666;2023-02-15T18:09:11;48.60;;;28.73;;
76344;SDS011;65160;50.504;3.666;2023-02-15T18:11:56;43.92;;;28.23;;